createdAt,value
2022-10-25T00:00:51.249Z,13.87
2022-10-25T00:01:51.347Z,13.86
2022-10-25T00:02:51.232Z,13.92
2022-10-25T00:03:51.237Z,13.89
2022-10-25T00:04:51.214Z,13.89
2022-10-25T00:05:51.210Z,13.97
2022-10-25T00:06:51.196Z,13.99
2022-10-25T00:07:51.185Z,14.03
2022-10-25T00:08:51.190Z,13.93
2022-10-25T00:09:51.171Z,13.99
2022-10-25T00:10:51.164Z,13.93
2022-10-25T00:11:51.161Z,13.92
2022-10-25T00:12:51.166Z,13.97
2022-10-25T00:13:51.154Z,13.96
2022-10-25T00:14:51.130Z,14.00
2022-10-25T00:15:51.133Z,14.03
2022-10-25T00:16:51.115Z,13.93
2022-10-25T00:17:51.121Z,13.97
2022-10-25T00:18:51.106Z,13.87
2022-10-25T00:19:51.101Z,13.93
2022-10-25T00:20:51.147Z,13.83
2022-10-25T00:21:51.091Z,13.95
2022-10-25T00:22:51.084Z,13.92
2022-10-25T00:23:51.082Z,13.87
2022-10-25T00:24:51.062Z,13.86
2022-10-25T00:25:51.052Z,13.78
2022-10-25T00:26:51.041Z,13.86
2022-10-25T00:27:51.042Z,13.78
2022-10-25T00:29:51.107Z,13.68
2022-10-25T00:30:51.098Z,13.72
2022-10-25T00:31:51.093Z,13.60
2022-10-25T00:32:51.080Z,13.57
2022-10-25T00:33:51.074Z,13.70
2022-10-25T00:34:51.066Z,13.53
2022-10-25T00:35:51.071Z,13.62
2022-10-25T00:36:51.056Z,13.70
2022-10-25T00:37:51.050Z,13.59
2022-10-25T00:38:51.038Z,13.59
2022-10-25T00:39:51.022Z,13.62
2022-10-25T00:40:52.099Z,13.57
2022-10-25T00:41:53.105Z,13.49
2022-10-25T00:42:52.101Z,13.50
2022-10-25T00:43:52.085Z,13.54
2022-10-25T00:44:52.075Z,13.54
2022-10-25T00:45:52.133Z,13.50
2022-10-25T00:46:52.077Z,13.47
2022-10-25T00:47:52.055Z,13.46
2022-10-25T00:48:53.984Z,13.47
2022-10-25T00:49:52.044Z,13.50
2022-10-25T00:50:52.039Z,13.47
2022-10-25T00:51:52.020Z,13.39
2022-10-25T00:52:52.008Z,13.38
2022-10-25T00:53:51.995Z,13.41
2022-10-25T00:54:53.000Z,13.42
2022-10-25T00:55:51.994Z,13.46
2022-10-25T00:56:51.983Z,13.41
2022-10-25T00:57:51.995Z,13.44
2022-10-25T00:58:51.966Z,13.27
2022-10-25T00:59:51.976Z,13.41
2022-10-25T01:03:16.975Z,13.42
2022-10-25T01:03:36.607Z,13.37
2022-10-25T01:04:36.600Z,13.35
2022-10-25T01:05:36.590Z,13.37
2022-10-25T01:06:38.548Z,13.37
2022-10-25T01:07:37.666Z,13.35
2022-10-25T01:08:37.665Z,13.39
2022-10-25T01:09:37.657Z,13.42
2022-10-25T01:10:37.642Z,13.33
2022-10-25T01:11:37.635Z,13.37
2022-10-25T01:12:37.627Z,13.33
2022-10-25T01:13:37.623Z,13.35
2022-10-25T01:14:37.609Z,13.30
2022-10-25T01:15:37.616Z,13.31
2022-10-25T01:16:37.595Z,13.42
2022-10-25T01:17:37.598Z,13.25
2022-10-25T01:18:37.588Z,13.30
2022-10-25T01:19:37.573Z,13.23
2022-10-25T01:20:37.574Z,13.18
2022-10-25T01:21:37.550Z,13.19
2022-10-25T01:22:37.546Z,13.25
2022-10-25T01:23:37.541Z,13.08
2022-10-25T01:24:37.531Z,13.18
2022-10-25T01:25:37.538Z,13.13
2022-10-25T01:26:37.538Z,13.05
2022-10-25T01:27:37.516Z,13.08
2022-10-25T01:28:37.507Z,13.11
2022-10-25T01:29:37.495Z,13.09
2022-10-25T01:30:37.487Z,13.20
2022-10-25T01:31:37.492Z,13.09
2022-10-25T01:32:37.465Z,13.03
2022-10-25T01:33:37.464Z,13.09
2022-10-25T01:34:37.457Z,13.13
2022-10-25T01:35:37.442Z,13.09
2022-10-25T01:36:37.460Z,13.18
2022-10-25T01:37:37.458Z,13.11
2022-10-25T01:38:37.420Z,13.12
2022-10-25T01:39:37.420Z,13.15
2022-10-25T01:40:37.405Z,13.20
2022-10-25T01:41:37.404Z,13.08
2022-10-25T01:42:37.396Z,13.08
2022-10-25T01:43:37.375Z,13.09
2022-10-25T01:44:37.428Z,13.08
2022-10-25T01:45:37.361Z,12.98
2022-10-25T01:46:38.068Z,13.08
2022-10-25T01:47:37.351Z,13.04
2022-10-25T01:48:37.341Z,13.04
2022-10-25T01:49:37.343Z,13.01
2022-10-25T01:50:37.328Z,13.00
2022-10-25T01:51:37.317Z,12.91
2022-10-25T01:52:37.302Z,12.95
2022-10-25T01:53:37.299Z,12.97
2022-10-25T01:54:37.310Z,12.97
2022-10-25T01:55:37.286Z,12.93
2022-10-25T01:56:37.288Z,12.79
2022-10-25T01:57:37.271Z,12.93
2022-10-25T01:58:37.259Z,12.87
2022-10-25T01:59:37.256Z,12.79
2022-10-25T02:00:37.270Z,12.73
2022-10-25T02:01:37.453Z,12.67
2022-10-25T02:02:37.228Z,12.72
2022-10-25T02:03:37.215Z,12.68
2022-10-25T02:04:37.210Z,12.68
2022-10-25T02:05:37.211Z,12.64
2022-10-25T02:06:37.196Z,12.61
2022-10-25T02:07:37.222Z,12.60
2022-10-25T02:08:37.186Z,12.58
2022-10-25T02:09:37.167Z,12.53
2022-10-25T02:10:37.160Z,12.57
2022-10-25T02:11:37.174Z,12.49
2022-10-25T02:12:37.150Z,12.49
2022-10-25T02:13:37.141Z,12.54
2022-10-25T02:14:37.150Z,12.46
2022-10-25T02:15:37.117Z,12.49
2022-10-25T02:16:37.124Z,12.42
2022-10-25T02:17:37.112Z,12.50
2022-10-25T02:18:37.109Z,12.50
2022-10-25T02:19:37.095Z,12.60
2022-10-25T02:20:37.093Z,12.60
2022-10-25T02:21:37.075Z,12.73
2022-10-25T02:22:37.070Z,12.79
2022-10-25T02:23:37.055Z,12.78
2022-10-25T02:24:37.051Z,12.85
2022-10-25T02:25:37.049Z,12.80
2022-10-25T02:26:37.095Z,12.87
2022-10-25T02:27:37.022Z,12.82
2022-10-25T02:28:37.020Z,12.91
2022-10-25T02:29:37.011Z,13.04
2022-10-25T02:30:37.002Z,13.04
2022-10-25T02:31:36.999Z,13.09
2022-10-25T02:32:37.499Z,12.98
2022-10-25T02:33:36.976Z,12.98
2022-10-25T02:34:36.982Z,13.00
2022-10-25T02:35:36.961Z,13.04
2022-10-25T02:36:36.959Z,13.00
2022-10-25T02:37:36.942Z,12.94
2022-10-25T02:38:36.934Z,12.97
2022-10-25T02:39:36.928Z,12.94
2022-10-25T02:40:36.918Z,12.94
2022-10-25T02:41:36.928Z,12.79
2022-10-25T02:42:36.905Z,12.80
2022-10-25T02:43:36.891Z,12.83
2022-10-25T02:44:37.504Z,12.86
2022-10-25T02:45:36.878Z,12.83
2022-10-25T02:46:36.877Z,12.83
2022-10-25T02:47:36.867Z,12.86
2022-10-25T02:48:36.853Z,12.82
2022-10-25T02:49:36.855Z,12.80
2022-10-25T02:50:36.859Z,12.86
2022-10-25T02:51:36.835Z,12.85
2022-10-25T02:52:36.830Z,12.85
2022-10-25T02:53:36.816Z,12.87
2022-10-25T02:54:36.804Z,12.79
2022-10-25T02:55:36.798Z,12.91
2022-10-25T02:56:36.789Z,12.80
2022-10-25T02:57:36.788Z,12.83
2022-10-25T02:58:36.773Z,12.78
2022-10-25T02:59:36.763Z,12.78
2022-10-25T03:00:36.789Z,12.72
2022-10-25T03:01:36.766Z,12.70
2022-10-25T03:02:36.736Z,12.70
2022-10-25T03:03:36.729Z,12.67
2022-10-25T03:04:37.509Z,12.67
2022-10-25T03:05:36.724Z,12.70
2022-10-25T03:06:36.715Z,12.64
2022-10-25T03:07:36.696Z,12.79
2022-10-25T03:08:36.687Z,12.78
2022-10-25T03:09:36.688Z,12.73
2022-10-25T03:10:36.682Z,12.73
2022-10-25T03:11:36.666Z,12.79
2022-10-25T03:12:36.666Z,12.73
2022-10-25T03:13:36.656Z,12.82
2022-10-25T03:14:36.643Z,12.83
2022-10-25T03:15:36.637Z,12.86
2022-10-25T03:16:37.525Z,12.75
2022-10-25T03:17:36.633Z,12.72
2022-10-25T03:18:36.620Z,12.60
2022-10-25T03:19:36.604Z,12.58
2022-10-25T03:20:36.597Z,12.58
2022-10-25T03:21:38.765Z,12.54
2022-10-25T03:22:36.597Z,12.49
2022-10-25T03:23:36.588Z,12.47
2022-10-25T03:24:36.566Z,12.50
2022-10-25T03:25:36.573Z,12.53
2022-10-25T03:26:36.545Z,12.54
2022-10-25T03:27:36.548Z,12.49
2022-10-25T03:28:36.536Z,12.47
2022-10-25T03:29:36.520Z,12.50
2022-10-25T03:30:36.536Z,12.60
2022-10-25T03:31:36.506Z,12.55
2022-10-25T03:32:36.515Z,12.46
2022-10-25T03:33:36.496Z,12.60
2022-10-25T03:34:36.494Z,12.61
2022-10-25T03:35:36.474Z,12.57
2022-10-25T03:36:36.465Z,12.45
2022-10-25T03:37:39.017Z,12.57
2022-10-25T03:38:36.452Z,12.64
2022-10-25T03:39:36.445Z,12.70
2022-10-25T03:40:36.433Z,12.79
2022-10-25T03:41:36.430Z,12.75
2022-10-25T03:42:36.445Z,12.76
2022-10-25T03:43:36.409Z,12.65
2022-10-25T03:44:36.414Z,12.76
2022-10-25T03:45:36.394Z,12.87
2022-10-25T03:46:36.401Z,12.85
2022-10-25T03:47:36.385Z,12.83
2022-10-25T03:48:36.369Z,12.91
2022-10-25T03:49:36.369Z,12.91
2022-10-25T03:50:36.367Z,12.95
2022-10-25T03:51:36.345Z,13.01
2022-10-25T03:52:36.339Z,12.83
2022-10-25T03:53:36.337Z,13.04
2022-10-25T03:54:37.094Z,13.08
2022-10-25T03:55:36.317Z,12.95
2022-10-25T03:56:36.302Z,13.04
2022-10-25T03:57:36.297Z,13.12
2022-10-25T03:58:36.296Z,13.09
2022-10-25T03:59:36.280Z,13.05
2022-10-25T04:00:36.361Z,13.08
2022-10-25T04:01:36.386Z,13.03
2022-10-25T04:02:36.254Z,13.05
2022-10-25T04:03:36.250Z,13.15
2022-10-25T04:04:36.239Z,13.03
2022-10-25T04:05:36.241Z,13.05
2022-10-25T04:06:36.225Z,13.05
2022-10-25T04:07:36.215Z,13.00
2022-10-25T04:08:36.215Z,12.94
2022-10-25T04:09:36.200Z,12.90
2022-10-25T04:10:37.025Z,12.95
2022-10-25T04:11:36.187Z,12.95
2022-10-25T04:12:36.177Z,12.97
2022-10-25T04:13:36.168Z,12.95
2022-10-25T04:14:36.165Z,12.94
2022-10-25T04:15:36.155Z,12.86
2022-10-25T04:16:36.169Z,12.93
2022-10-25T04:17:36.139Z,12.94
2022-10-25T04:18:36.131Z,12.93
2022-10-25T04:19:37.105Z,12.82
2022-10-25T04:20:36.101Z,12.85
2022-10-25T04:21:37.129Z,12.82
2022-10-25T04:23:36.095Z,12.76
2022-10-25T04:24:36.078Z,12.78
2022-10-25T04:25:36.075Z,12.70
2022-10-25T04:26:36.072Z,12.65
2022-10-25T04:27:36.062Z,12.60
2022-10-25T04:28:36.044Z,12.64
2022-10-25T04:29:36.038Z,12.60
2022-10-25T04:30:38.086Z,12.57
2022-10-25T04:31:36.032Z,12.55
2022-10-25T04:32:36.020Z,12.55
2022-10-25T04:33:36.003Z,12.57
2022-10-25T04:34:36.004Z,12.58
2022-10-25T04:35:36.000Z,12.65
2022-10-25T04:36:35.976Z,12.49
2022-10-25T04:37:35.981Z,12.57
2022-10-25T04:38:36.532Z,12.45
2022-10-25T04:39:35.959Z,12.50
2022-10-25T04:40:35.970Z,12.40
2022-10-25T04:41:36.611Z,12.53
2022-10-25T04:42:35.927Z,12.46
2022-10-25T04:43:35.924Z,12.53
2022-10-25T04:44:35.912Z,12.55
2022-10-25T04:45:35.943Z,12.47
2022-10-25T04:46:35.897Z,12.49
2022-10-25T04:47:35.884Z,12.57
2022-10-25T04:48:36.878Z,12.46
2022-10-25T04:49:35.872Z,12.47
2022-10-25T04:50:35.860Z,12.46
2022-10-25T04:51:35.857Z,12.46
2022-10-25T04:52:35.857Z,12.36
2022-10-25T04:53:36.540Z,12.47
2022-10-25T04:54:35.830Z,12.42
2022-10-25T04:55:35.818Z,12.31
2022-10-25T04:56:35.810Z,12.40
2022-10-25T04:57:35.810Z,12.45
2022-10-25T04:58:35.795Z,12.42
2022-10-25T04:59:35.801Z,12.50
2022-10-25T05:00:35.779Z,12.43
2022-10-25T05:01:35.858Z,12.46
2022-10-25T05:02:35.838Z,12.37
2022-10-25T05:03:35.756Z,12.57
2022-10-25T05:04:35.748Z,12.49
2022-10-25T05:05:35.748Z,12.47
2022-10-25T05:06:35.732Z,12.47
2022-10-25T05:07:35.737Z,12.54
2022-10-25T05:08:35.716Z,12.43
2022-10-25T05:09:35.710Z,12.49
2022-10-25T05:10:35.717Z,12.47
2022-10-25T05:12:35.690Z,12.50
2022-10-25T05:13:35.680Z,12.37
2022-10-25T05:14:35.672Z,12.46
2022-10-25T05:15:35.670Z,12.45
2022-10-25T05:16:35.666Z,12.35
2022-10-25T05:17:35.652Z,12.28
2022-10-25T05:18:35.638Z,12.36
2022-10-25T05:19:35.642Z,12.29
2022-10-25T05:20:35.637Z,12.35
2022-10-25T05:21:35.624Z,12.28
2022-10-25T05:22:35.599Z,12.35
2022-10-25T05:23:36.185Z,12.37
2022-10-25T05:24:35.594Z,12.50
2022-10-25T05:25:35.663Z,12.42
2022-10-25T05:26:35.573Z,12.35
2022-10-25T05:27:35.562Z,12.46
2022-10-25T05:28:35.552Z,12.31
2022-10-25T05:29:35.547Z,12.39
2022-10-25T05:30:35.542Z,12.37
2022-10-25T05:31:35.523Z,12.37
2022-10-25T05:32:35.525Z,12.24
2022-10-25T05:33:35.508Z,12.36
2022-10-25T05:34:35.509Z,12.37
2022-10-25T05:35:35.501Z,12.31
2022-10-25T05:36:35.491Z,12.36
2022-10-25T05:37:35.479Z,12.43
2022-10-25T05:38:37.670Z,12.28
2022-10-25T05:39:36.501Z,12.35
2022-10-25T05:40:35.453Z,12.42
2022-10-25T05:41:37.164Z,12.43
2022-10-25T05:42:35.443Z,12.55
2022-10-25T05:43:35.439Z,12.46
2022-10-25T05:44:35.646Z,12.40
2022-10-25T05:45:35.420Z,12.50
2022-10-25T05:46:35.428Z,12.40
2022-10-25T05:47:35.401Z,12.55
2022-10-25T05:48:35.432Z,12.57
2022-10-25T05:49:35.393Z,12.45
2022-10-25T05:50:35.418Z,12.49
2022-10-25T05:51:36.515Z,12.60
2022-10-25T05:52:36.359Z,12.60
2022-10-25T05:53:35.355Z,12.61
2022-10-25T05:54:35.406Z,12.61
2022-10-25T05:55:35.339Z,12.70
2022-10-25T05:56:35.342Z,12.65
2022-10-25T05:57:35.328Z,12.67
2022-10-25T05:58:35.310Z,12.62
2022-10-25T05:59:35.319Z,12.65
2022-10-25T06:00:35.367Z,12.64
2022-10-25T06:01:35.423Z,12.67
2022-10-25T06:02:35.286Z,12.61
2022-10-25T06:03:35.274Z,12.76
2022-10-25T06:04:35.276Z,12.64
2022-10-25T06:05:35.256Z,12.62
2022-10-25T06:06:35.277Z,12.68
2022-10-25T06:07:35.245Z,12.67
2022-10-25T06:08:35.246Z,12.76
2022-10-25T06:09:35.231Z,12.80
2022-10-25T06:10:35.275Z,12.85
2022-10-25T06:11:35.209Z,12.90
2022-10-25T06:12:35.199Z,12.82
2022-10-25T06:13:35.193Z,12.87
2022-10-25T06:14:35.190Z,12.90
2022-10-25T06:15:36.056Z,12.70
2022-10-25T06:16:35.172Z,12.80
2022-10-25T06:17:35.154Z,12.64
2022-10-25T06:18:35.148Z,12.58
2022-10-25T06:19:35.148Z,12.60
2022-10-25T06:20:35.206Z,12.72
2022-10-25T06:21:35.129Z,12.64
2022-10-25T06:22:35.120Z,12.62
2022-10-25T06:23:35.123Z,12.47
2022-10-25T06:24:35.115Z,12.55
2022-10-25T06:25:35.097Z,12.50
2022-10-25T06:26:35.092Z,12.46
2022-10-25T06:27:35.080Z,12.60
2022-10-25T06:28:35.067Z,12.55
2022-10-25T06:29:35.073Z,12.64
2022-10-25T06:30:35.068Z,12.47
2022-10-25T06:31:35.645Z,12.57
2022-10-25T06:32:35.041Z,12.60
2022-10-25T06:33:35.045Z,12.60
2022-10-25T06:34:35.020Z,12.70
2022-10-25T06:35:35.014Z,12.64
2022-10-25T06:36:35.008Z,12.70
2022-10-25T06:37:35.004Z,12.67
2022-10-25T06:38:35.005Z,12.61
2022-10-25T06:39:34.989Z,12.65
2022-10-25T06:40:34.977Z,12.62
2022-10-25T06:41:36.022Z,12.72
2022-10-25T06:42:34.965Z,12.67
2022-10-25T06:43:34.938Z,12.76
2022-10-25T06:44:35.945Z,12.73
2022-10-25T06:45:35.645Z,12.83
2022-10-25T06:46:40.573Z,12.78
2022-10-25T06:47:35.916Z,12.80
2022-10-25T06:48:34.905Z,12.85
2022-10-25T06:49:34.904Z,12.86
2022-10-25T06:50:34.911Z,12.87
2022-10-25T06:51:35.570Z,12.90
2022-10-25T06:52:34.877Z,12.93
2022-10-25T06:53:34.865Z,12.85
2022-10-25T06:54:34.856Z,12.93
2022-10-25T06:55:34.848Z,12.94
2022-10-25T06:56:34.854Z,12.95
2022-10-25T06:57:35.563Z,12.98
2022-10-25T06:58:34.827Z,13.04
2022-10-25T06:59:34.821Z,12.98
2022-10-25T07:00:34.819Z,13.12
2022-10-25T07:01:34.926Z,13.13
2022-10-25T07:02:34.790Z,13.31
2022-10-25T07:03:34.795Z,13.37
2022-10-25T07:04:34.796Z,13.54
2022-10-25T07:05:34.775Z,13.62
2022-10-25T07:06:34.773Z,13.86
2022-10-25T07:07:34.759Z,14.00
2022-10-25T07:08:34.748Z,14.11
2022-10-25T07:09:34.738Z,14.11
2022-10-25T07:10:34.770Z,14.20
2022-10-25T07:11:34.732Z,14.28
2022-10-25T07:12:34.728Z,14.51
2022-10-25T07:13:34.743Z,14.69
2022-10-25T07:14:34.701Z,14.82
2022-10-25T07:15:36.415Z,14.88
2022-10-25T07:16:34.690Z,14.92
2022-10-25T07:17:34.684Z,14.96
2022-10-25T07:18:34.665Z,15.04
2022-10-25T07:19:34.657Z,15.00
2022-10-25T07:20:34.652Z,15.04
2022-10-25T07:21:34.660Z,14.97
2022-10-25T07:22:34.642Z,14.97
2022-10-25T07:23:34.630Z,14.89
2022-10-25T07:24:34.627Z,14.86
2022-10-25T07:25:34.627Z,14.84
2022-10-25T07:26:34.614Z,14.81
2022-10-25T07:27:34.598Z,14.65
2022-10-25T07:28:34.588Z,14.62
2022-10-25T07:29:35.581Z,14.59
2022-10-25T07:30:34.597Z,14.54
2022-10-25T07:31:34.699Z,14.65
2022-10-25T07:32:37.581Z,14.55
2022-10-25T07:33:35.555Z,14.55
2022-10-25T07:34:34.544Z,14.36
2022-10-25T07:35:41.971Z,14.48
2022-10-25T07:36:36.530Z,14.37
2022-10-25T07:37:34.543Z,14.41
2022-10-25T07:38:34.524Z,14.50
2022-10-25T07:39:35.085Z,14.50
2022-10-25T07:40:34.501Z,14.48
2022-10-25T07:41:34.492Z,14.53
2022-10-25T07:42:34.485Z,14.51
2022-10-25T07:43:34.485Z,14.59
2022-10-25T07:44:34.539Z,14.51
2022-10-25T07:45:34.461Z,14.54
2022-10-25T07:46:34.455Z,14.50
2022-10-25T07:47:34.462Z,14.65
2022-10-25T07:48:34.445Z,14.66
2022-10-25T07:49:34.427Z,14.66
2022-10-25T07:50:34.417Z,14.86
2022-10-25T07:51:34.413Z,14.97
2022-10-25T07:52:34.411Z,14.91
2022-10-25T07:53:34.406Z,14.96
2022-10-25T07:54:34.434Z,14.86
2022-10-25T07:55:34.377Z,14.88
2022-10-25T07:56:34.421Z,14.92
2022-10-25T07:57:36.101Z,15.00
2022-10-25T07:58:34.884Z,14.96
2022-10-25T07:59:34.346Z,14.88
2022-10-25T08:00:34.362Z,14.91
2022-10-25T08:01:34.403Z,14.84
2022-10-25T08:02:34.320Z,14.94
2022-10-25T08:03:34.321Z,14.91
2022-10-25T08:04:34.323Z,14.91
2022-10-25T08:05:34.294Z,14.91
2022-10-25T08:06:34.298Z,14.97
2022-10-25T08:07:34.280Z,14.97
2022-10-25T08:08:34.264Z,14.92
2022-10-25T08:09:38.279Z,15.00
2022-10-25T08:10:35.270Z,14.99
2022-10-25T08:11:34.246Z,15.03
2022-10-25T08:12:34.237Z,15.10
2022-10-25T08:13:34.232Z,15.00
2022-10-25T08:14:36.453Z,15.07
2022-10-25T08:15:35.213Z,15.09
2022-10-25T08:16:34.199Z,15.09
2022-10-25T08:17:34.209Z,15.07
2022-10-25T08:18:34.189Z,15.14
2022-10-25T08:19:34.207Z,15.15
2022-10-25T08:20:56.768Z,15.27
2022-10-25T08:21:36.170Z,15.25
2022-10-25T08:22:34.155Z,15.25
2022-10-25T08:23:34.148Z,15.35
2022-10-25T08:24:34.154Z,15.35
2022-10-25T08:25:34.145Z,15.40
2022-10-25T08:26:36.772Z,15.46
2022-10-25T08:27:35.135Z,15.49
2022-10-25T08:28:34.109Z,15.58
2022-10-25T08:29:34.113Z,15.49
2022-10-25T08:30:34.095Z,15.55
2022-10-25T08:31:34.100Z,15.68
2022-10-25T08:32:34.078Z,15.67
2022-10-25T08:33:34.077Z,15.76
2022-10-25T08:34:34.064Z,15.86
2022-10-25T08:35:34.116Z,15.79
2022-10-25T08:36:34.074Z,15.95
2022-10-25T08:37:34.074Z,16.08
2022-10-25T08:38:34.598Z,16.09
2022-10-25T08:39:34.020Z,16.20
2022-10-25T08:40:34.038Z,16.29
2022-10-25T08:41:34.227Z,16.35
2022-10-25T08:42:33.997Z,16.31
2022-10-25T08:43:33.996Z,16.41
2022-10-25T08:44:33.985Z,16.41
2022-10-25T08:45:34.013Z,16.42
2022-10-25T08:46:33.970Z,16.41
2022-10-25T08:47:33.956Z,16.24
2022-10-25T08:48:33.956Z,16.12
2022-10-25T08:49:33.947Z,16.23
2022-10-25T08:50:33.932Z,16.24
2022-10-25T08:51:33.940Z,16.26
2022-10-25T08:52:33.916Z,16.05
2022-10-25T08:53:33.913Z,16.05
2022-10-25T08:54:33.904Z,16.09
2022-10-25T08:55:33.900Z,16.21
2022-10-25T08:56:37.187Z,16.31
2022-10-25T08:57:34.882Z,16.08
2022-10-25T08:58:33.869Z,16.09
2022-10-25T08:59:33.862Z,16.04
2022-10-25T09:00:34.609Z,16.08
2022-10-25T09:01:33.998Z,16.13
2022-10-25T09:02:34.101Z,16.23
2022-10-25T09:03:33.881Z,16.49
2022-10-25T09:04:33.837Z,16.42
2022-10-25T09:05:33.814Z,16.66
2022-10-25T09:06:34.215Z,16.57
2022-10-25T09:07:33.795Z,16.68
2022-10-25T09:08:33.788Z,16.53
2022-10-25T09:09:33.786Z,16.60
2022-10-25T09:10:33.767Z,16.54
2022-10-25T09:11:33.767Z,16.53
2022-10-25T09:12:33.751Z,16.49
2022-10-25T09:14:34.688Z,16.56
2022-10-25T09:15:35.122Z,16.42
2022-10-25T09:16:33.729Z,16.47
2022-10-25T09:17:33.711Z,16.39
2022-10-25T09:18:33.707Z,16.56
2022-10-25T09:19:33.693Z,16.56
2022-10-25T09:20:33.692Z,16.65
2022-10-25T09:21:33.690Z,16.56
2022-10-25T09:22:33.675Z,16.60
2022-10-25T09:23:33.704Z,16.61
2022-10-25T09:24:33.684Z,16.68
2022-10-25T09:25:33.649Z,16.84
2022-10-25T09:26:33.660Z,16.90
2022-10-25T09:27:33.631Z,17.12
2022-10-25T09:28:33.636Z,17.08
2022-10-25T09:29:33.628Z,17.26
2022-10-25T09:30:33.621Z,17.22
2022-10-25T09:31:33.604Z,17.15
2022-10-25T09:32:33.588Z,17.12
2022-10-25T09:33:33.591Z,17.08
2022-10-25T09:34:33.576Z,17.14
2022-10-25T09:35:33.635Z,17.22
2022-10-25T09:36:33.559Z,17.26
2022-10-25T09:37:33.570Z,17.30
2022-10-25T09:38:33.614Z,17.36
2022-10-25T09:39:33.541Z,17.38
2022-10-25T09:40:33.527Z,17.31
2022-10-25T09:41:33.558Z,17.46
2022-10-25T09:42:33.513Z,17.41
2022-10-25T09:43:33.509Z,17.48
2022-10-25T09:44:33.500Z,17.54
2022-10-25T09:45:33.539Z,17.46
2022-10-25T09:46:33.494Z,17.24
2022-10-25T09:47:33.469Z,17.24
2022-10-25T09:48:33.532Z,17.23
2022-10-25T09:49:33.489Z,17.23
2022-10-25T09:50:33.478Z,17.15
2022-10-25T09:51:33.482Z,17.11
2022-10-25T09:52:34.198Z,17.16
2022-10-25T09:53:33.418Z,17.22
2022-10-25T09:54:33.414Z,17.23
2022-10-25T09:55:33.426Z,17.20
2022-10-25T09:56:33.393Z,17.26
2022-10-25T09:57:33.440Z,17.16
2022-10-25T09:58:33.377Z,17.19
2022-10-25T09:59:33.370Z,17.15
2022-10-25T10:00:33.370Z,17.16
2022-10-25T10:01:33.451Z,17.24
2022-10-25T10:02:33.438Z,17.30
2022-10-25T10:03:34.134Z,17.41
2022-10-25T10:04:33.326Z,17.49
2022-10-25T10:05:33.338Z,17.49
2022-10-25T10:06:33.366Z,17.51
2022-10-25T10:07:33.321Z,17.65
2022-10-25T10:08:33.326Z,17.63
2022-10-25T10:09:33.287Z,17.64
2022-10-25T10:10:33.304Z,17.65
2022-10-25T10:11:33.274Z,17.76
2022-10-25T10:12:33.271Z,17.76
2022-10-25T10:13:33.683Z,17.76
2022-10-25T10:14:33.260Z,17.80
2022-10-25T10:15:33.240Z,17.74
2022-10-25T10:16:33.243Z,17.72
2022-10-25T10:17:33.225Z,17.60
2022-10-25T10:18:33.202Z,17.64
2022-10-25T10:19:34.216Z,17.60
2022-10-25T10:20:33.217Z,17.72
2022-10-25T10:21:33.190Z,17.64
2022-10-25T10:22:33.201Z,17.64
2022-10-25T10:23:33.177Z,17.39
2022-10-25T10:24:33.176Z,17.48
2022-10-25T10:25:33.156Z,17.45
2022-10-25T10:26:33.155Z,17.41
2022-10-25T10:27:33.142Z,17.33
2022-10-25T10:28:33.133Z,17.23
2022-10-25T10:29:33.187Z,17.34
2022-10-25T10:30:33.116Z,17.39
2022-10-25T10:31:33.156Z,17.24
2022-10-25T10:32:33.129Z,17.27
2022-10-25T10:33:33.110Z,17.24
2022-10-25T10:34:33.100Z,17.22
2022-10-25T10:35:33.083Z,17.16
2022-10-25T10:36:33.054Z,17.19
2022-10-25T10:37:34.060Z,17.23
2022-10-25T10:38:33.045Z,17.29
2022-10-25T10:39:33.635Z,17.36
2022-10-25T10:40:33.041Z,17.51
2022-10-25T10:41:33.976Z,17.51
2022-10-25T10:42:33.012Z,17.59
2022-10-25T10:43:33.005Z,17.70
2022-10-25T10:44:33.003Z,17.64
2022-10-25T10:45:33.001Z,17.74
2022-10-25T10:46:32.996Z,17.63
2022-10-25T10:47:32.971Z,17.64
2022-10-25T10:48:33.005Z,17.72
2022-10-25T10:49:32.968Z,17.80
2022-10-25T10:50:33.162Z,17.68
2022-10-25T10:51:43.655Z,17.74
2022-10-25T10:52:34.942Z,17.79
2022-10-25T10:53:32.930Z,17.78
2022-10-25T10:54:32.918Z,17.82
2022-10-25T10:55:32.928Z,17.79
2022-10-25T10:56:33.646Z,17.78
2022-10-25T10:57:32.907Z,17.72
2022-10-25T10:58:32.928Z,17.72
2022-10-25T10:59:32.887Z,17.64
2022-10-25T11:00:32.870Z,17.33
2022-10-25T11:01:33.034Z,17.29
2022-10-25T11:02:33.138Z,17.24
2022-10-25T11:03:32.842Z,17.05
2022-10-25T11:04:32.854Z,17.06
2022-10-25T11:05:32.830Z,17.23
2022-10-25T11:06:32.834Z,17.29
2022-10-25T11:07:32.825Z,17.44
2022-10-25T11:08:32.817Z,17.48
2022-10-25T11:09:32.810Z,17.44
2022-10-25T11:10:32.793Z,17.52
2022-10-25T11:11:32.790Z,17.51
2022-10-25T11:12:34.165Z,17.46
2022-10-25T11:13:32.775Z,17.63
2022-10-25T11:14:32.755Z,17.56
2022-10-25T11:15:32.753Z,17.57
2022-10-25T11:16:32.742Z,17.64
2022-10-25T11:17:32.856Z,17.51
2022-10-25T11:18:32.738Z,17.59
2022-10-25T11:19:32.724Z,17.59
2022-10-25T11:20:32.715Z,17.57
2022-10-25T11:21:33.320Z,17.49
2022-10-25T11:22:33.146Z,17.64
2022-10-25T11:23:32.690Z,17.64
2022-10-25T11:24:32.680Z,17.72
2022-10-25T11:25:32.686Z,17.74
2022-10-25T11:26:33.654Z,17.76
2022-10-25T11:27:34.970Z,17.86
2022-10-25T11:28:34.167Z,17.78
2022-10-25T11:29:32.665Z,17.92
2022-10-25T11:30:32.626Z,17.87
2022-10-25T11:31:32.627Z,17.94
2022-10-25T11:32:32.670Z,17.94
2022-10-25T11:33:32.704Z,17.83
2022-10-25T11:34:32.607Z,17.79
2022-10-25T11:35:32.635Z,17.79
2022-10-25T11:36:32.603Z,17.74
2022-10-25T11:37:32.610Z,17.71
2022-10-25T11:38:32.585Z,17.67
2022-10-25T11:39:32.568Z,17.74
2022-10-25T11:40:32.561Z,17.79
2022-10-25T11:41:32.559Z,17.83
2022-10-25T11:42:32.530Z,17.83
2022-10-25T11:43:32.534Z,17.85
2022-10-25T11:44:32.518Z,17.86
2022-10-25T11:45:32.513Z,17.90
2022-10-25T11:46:32.499Z,18.10
2022-10-25T11:47:32.495Z,18.10
2022-10-25T11:48:32.495Z,18.13
2022-10-25T11:49:32.580Z,18.15
2022-10-25T11:50:32.484Z,18.08
2022-10-25T11:51:32.465Z,18.11
2022-10-25T11:52:32.467Z,18.19
2022-10-25T11:53:32.458Z,18.20
2022-10-25T11:54:32.449Z,18.29
2022-10-25T11:55:32.445Z,18.11
2022-10-25T11:56:32.475Z,18.16
2022-10-25T11:57:32.429Z,18.15
2022-10-25T11:58:33.169Z,18.16
2022-10-25T11:59:32.410Z,18.19
2022-10-25T12:00:32.413Z,18.20
2022-10-25T12:01:32.454Z,18.34
2022-10-25T12:02:32.416Z,18.25
2022-10-25T12:03:32.379Z,18.40
2022-10-25T12:04:33.702Z,18.41
2022-10-25T12:05:33.468Z,18.44
2022-10-25T12:06:32.361Z,18.44
2022-10-25T12:07:32.364Z,18.47
2022-10-25T12:08:32.353Z,18.37
2022-10-25T12:10:04.723Z,18.37
2022-10-25T12:10:32.414Z,18.35
2022-10-25T12:11:32.323Z,18.35
2022-10-25T12:12:32.311Z,18.44
2022-10-25T12:13:32.315Z,18.38
2022-10-25T12:14:32.289Z,18.44
2022-10-25T12:15:32.280Z,18.34
2022-10-25T12:16:32.274Z,18.20
2022-10-25T12:17:32.270Z,18.25
2022-10-25T12:18:33.203Z,18.22
2022-10-25T12:19:32.251Z,18.31
2022-10-25T12:20:32.286Z,18.31
2022-10-25T12:21:32.334Z,18.31
2022-10-25T12:22:32.236Z,18.31
2022-10-25T12:23:32.217Z,18.44
2022-10-25T12:24:32.206Z,18.38
2022-10-25T12:25:32.212Z,18.35
2022-10-25T12:26:32.195Z,18.26
2022-10-25T12:27:32.190Z,18.28
2022-10-25T12:28:33.708Z,18.22
2022-10-25T12:29:32.169Z,18.25
2022-10-25T12:30:32.712Z,18.19
2022-10-25T12:31:32.184Z,18.20
2022-10-25T12:32:32.145Z,18.37
2022-10-25T12:33:32.132Z,18.31
2022-10-25T12:34:32.131Z,18.38
2022-10-25T12:35:32.148Z,18.26
2022-10-25T12:36:35.886Z,18.23
2022-10-25T12:37:32.107Z,18.13
2022-10-25T12:38:32.098Z,18.16
2022-10-25T12:39:32.097Z,18.16
2022-10-25T12:40:32.116Z,18.35
2022-10-25T12:41:32.241Z,18.34
2022-10-25T12:42:32.061Z,18.43
2022-10-25T12:43:32.060Z,18.53
2022-10-25T12:44:32.045Z,18.45
2022-10-25T12:45:32.058Z,18.53
2022-10-25T12:46:32.070Z,18.63
2022-10-25T12:47:32.024Z,18.55
2022-10-25T12:48:32.025Z,18.49
2022-10-25T12:49:32.007Z,18.47
2022-10-25T12:50:32.007Z,18.59
2022-10-25T12:51:32.002Z,18.58
2022-10-25T12:52:32.090Z,18.50
2022-10-25T12:53:36.715Z,18.44
2022-10-25T12:55:04.745Z,18.52
2022-10-25T12:55:32.113Z,18.44
2022-10-25T12:56:31.967Z,18.45
2022-10-25T12:57:31.940Z,18.55
2022-10-25T12:59:04.765Z,18.47